Time;durP1;ratioP1;P1;durP2;ratioP2;P2;SDS_P1;SDS_P2;PMS_P1;PMS_P2;Temp;Humidity;BMP_temperature;BMP_pressure;BME280_temperature;BME280_humidity;BME280_pressure;Samples;Min_cycle;Max_cycle;Signal;HPM_P1;HPM_P2
2022/08/26 00:00:29;;;;;;;12.77;3.22;;;;;;;22.54;100.00;98892.91;4311382;33;20051;-71
2022/08/26 00:03:03;;;;;;;12.20;3.12;;;;;;;22.27;100.00;98851.91;4311032;33;20079;-70
2022/08/26 00:05:29;;;;;;;8.75;3.50;;;;;;;22.56;100.00;98879.63;4282848;33;20321;-69
2022/08/26 00:07:56;;;;;;;10.68;3.60;;;;;;;22.21;100.00;98846.91;4274278;33;20104;-68
2022/08/26 00:10:23;;;;;;;15.95;3.10;;;;;;;22.30;100.00;98880.59;4283764;33;20540;-69
2022/08/26 00:12:50;;;;;;;16.52;3.60;;;;;;;22.22;100.00;98886.91;4285252;33;20097;-72
2022/08/26 00:15:18;;;;;;;15.05;3.53;;;;;;;21.98;100.00;98849.94;4286625;33;20074;-70
2022/08/26 00:17:45;;;;;;;8.65;3.33;;;;;;;21.76;100.00;98845.53;4283234;33;20034;-70
2022/08/26 00:20:14;;;;;;;12.02;2.83;;;;;;;21.91;100.00;98877.06;4283928;33;20413;-69
2022/08/26 00:22:42;;;;;;;10.13;2.42;;;;;;;21.75;100.00;98880.34;4285848;33;20434;-73
2022/08/26 00:25:11;;;;;;;10.13;3.03;;;;;;;21.48;100.00;98842.37;4282693;33;20044;-70
2022/08/26 00:27:37;;;;;;;13.07;2.95;;;;;;;21.67;100.00;98874.91;4296233;33;20045;-70
2022/08/26 00:30:08;;;;;;;10.27;2.78;;;;;;;21.65;100.00;98875.22;4305713;33;20037;-70
2022/08/26 00:32:35;;;;;;;9.95;3.08;;;;;;;21.40;100.00;98863.97;4308884;33;20477;-70
2022/08/26 00:35:01;;;;;;;6.50;2.40;;;;;;;21.65;100.00;98875.22;4306134;33;20063;-70
2022/08/26 00:37:28;;;;;;;7.47;3.30;;;;;;;21.53;100.00;98872.34;4321297;33;20056;-69
2022/08/26 00:39:54;;;;;;;15.75;2.90;;;;;;;21.32;100.00;98862.06;4323934;33;20138;-69
2022/08/26 00:42:20;;;;;;;16.10;3.10;;;;;;;21.38;100.00;98876.38;4324013;33;20045;-69
2022/08/26 00:44:47;;;;;;;16.40;3.22;;;;;;;21.21;100.00;98855.31;4321860;33;20078;-69
2022/08/26 00:47:27;;;;;;;12.35;3.90;;;;;;;21.10;100.00;98865.00;4318719;33;20036;-70
2022/08/26 00:49:55;;;;;;;6.28;2.70;;;;;;;21.10;100.00;98854.84;4311808;33;20612;-70
2022/08/26 00:52:22;;;;;;;8.88;2.92;;;;;;;21.10;100.00;98859.53;4310046;33;20067;-69
2022/08/26 00:54:55;;;;;;;4.43;2.85;;;;;;;21.16;100.00;98871.91;4277094;33;20037;-69
2022/08/26 00:57:22;;;;;;;16.25;2.92;;;;;;;20.97;100.00;98873.06;4249231;33;20110;-69
2022/08/26 00:59:54;;;;;;;12.68;2.90;;;;;;;20.92;100.00;98853.25;4249694;33;20031;-70
2022/08/26 01:02:20;;;;;;;14.87;3.55;;;;;;;20.96;100.00;98876.91;4253476;33;20526;-69
2022/08/26 01:04:49;;;;;;;11.40;3.28;;;;;;;20.68;100.00;98838.12;4248851;33;20424;-73
2022/08/26 01:07:16;;;;;;;13.52;2.70;;;;;;;20.92;100.00;98875.13;4250883;33;20046;-69
2022/08/26 01:09:42;;;;;;;13.18;3.28;;;;;;;20.62;100.00;98831.97;4250805;33;20038;-70
2022/08/26 01:12:08;;;;;;;14.15;3.10;;;;;;;20.74;100.00;98875.16;4261199;33;20042;-69
2022/08/26 01:14:36;;;;;;;9.32;2.80;;;;;;;20.73;100.00;98872.75;4264729;33;20527;-71
2022/08/26 01:17:05;;;;;;;14.00;2.75;;;;;;;20.41;100.00;98822.81;4262879;33;20034;-70
2022/08/26 01:19:44;;;;;;;15.65;3.42;;;;;;;20.63;100.00;98874.63;4268119;33;20085;-69
2022/08/26 01:22:16;;;;;;;11.55;2.97;;;;;;;20.51;100.00;98871.72;4291829;33;20387;-70
2022/08/26 01:24:43;;;;;;;11.48;2.65;;;;;;;20.25;100.00;98839.66;4289259;33;20115;-73
2022/08/26 01:27:14;;;;;;;14.52;3.58;;;;;;;20.29;100.00;98854.28;4321284;33;20128;-70
2022/08/26 01:29:43;;;;;;;16.00;3.65;;;;;;;20.35;100.00;98876.03;4349574;32;20422;-71
2022/08/26 01:32:13;;;;;;;7.95;2.80;;;;;;;20.27;100.00;98881.13;4349380;32;20075;-70
2022/08/26 01:34:39;;;;;;;6.12;3.35;;;;;;;20.21;100.00;98879.69;4350487;32;20067;-69
2022/08/26 01:37:14;;;;;;;8.05;2.72;;;;;;;19.87;100.00;98837.47;4346247;32;20031;-69
2022/08/26 01:39:43;;;;;;;9.13;2.90;;;;;;;20.05;100.00;98873.03;4320720;33;20460;-71
2022/08/26 01:42:12;;;;;;;9.57;3.65;;;;;;;19.78;100.00;98839.34;4323639;33;20458;-71
2022/08/26 01:45:07;;;;;;;15.50;3.42;;;;;;;19.67;100.00;98835.25;4310863;33;20057;-71
2022/08/26 01:47:36;;;;;;;14.25;3.10;;;;;;;19.43;100.00;98800.94;4296046;33;20041;-71
2022/08/26 01:50:09;;;;;;;11.90;3.70;;;;;;;19.88;100.00;98877.31;4294317;33;20392;-70
2022/08/26 01:52:40;;;;;;;15.75;3.25;;;;;;;19.81;100.00;98871.50;4302898;33;20070;-71
2022/08/26 01:55:08;;;;;;;18.40;3.80;;;;;;;19.80;100.00;98864.44;4284461;33;20051;-71
2022/08/26 01:57:35;;;;;;;18.37;3.25;;;;;;;19.74;100.00;98862.94;4286953;33;20025;-70
2022/08/26 02:00:06;;;;;;;31.40;4.20;;;;;;;19.80;100.00;98861.72;4284940;33;20130;-70
2022/08/26 02:02:40;;;;;;;16.90;3.33;;;;;;;19.82;100.00;98862.19;4230978;33;20086;-71
2022/08/26 02:05:19;;;;;;;16.73;2.95;;;;;;;19.60;100.00;98832.97;4220364;33;20565;-70
2022/08/26 02:07:47;;;;;;;22.37;3.83;;;;;;;19.82;100.00;98870.38;4220240;33;20047;-73
2022/08/26 02:10:14;;;;;;;6.37;2.85;;;;;;;19.79;100.00;98862.81;4222136;33;20035;-70
2022/08/26 02:12:41;;;;;;;20.12;3.50;;;;;;;19.79;100.00;98871.03;4227085;33;20023;-70
2022/08/26 02:15:11;;;;;;;13.55;3.80;;;;;;;19.73;100.00;98858.59;4233385;33;20030;-70
2022/08/26 02:17:43;;;;;;;7.35;3.47;;;;;;;19.48;100.00;98828.13;4242829;33;20068;-71
2022/08/26 02:20:14;;;;;;;13.13;3.45;;;;;;;19.79;100.00;98868.28;4256562;33;20073;-71
2022/08/26 02:22:42;;;;;;;11.68;3.10;;;;;;;19.83;100.00;98866.53;4249790;33;20064;-71
2022/08/26 02:25:21;;;;;;;12.88;4.15;;;;;;;19.85;100.00;98866.19;4250458;33;20034;-70
2022/08/26 02:27:48;;;;;;;18.15;3.28;;;;;;;19.81;100.00;98860.56;4246856;33;20068;-70
2022/08/26 02:30:23;;;;;;;11.02;4.00;;;;;;;19.84;100.00;98859.94;4277281;33;21013;-69
2022/08/26 02:32:50;;;;;;;10.48;4.00;;;;;;;19.63;100.00;98831.56;4276566;33;20046;-70
2022/08/26 02:35:19;;;;;;;6.45;2.55;;;;;;;19.93;100.00;98874.44;4282554;33;20055;-70
2022/08/26 02:37:45;;;;;;;11.43;3.10;;;;;;;19.89;100.00;98862.53;4278422;33;20034;-71
2022/08/26 02:40:13;;;;;;;11.52;3.17;;;;;;;19.45;100.00;98786.97;4278101;33;20065;-70
2022/08/26 02:42:40;;;;;;;8.18;3.28;;;;;;;19.70;100.00;98862.75;4291995;33;20080;-71
2022/08/26 02:45:07;;;;;;;8.70;3.40;;;;;;;19.88;100.00;98860.94;4289128;33;20033;-69
2022/08/26 02:47:34;;;;;;;9.43;3.03;;;;;;;19.98;100.00;98864.50;4275379;33;20134;-73
2022/08/26 02:50:01;;;;;;;11.25;2.67;;;;;;;19.98;100.00;98867.25;4277585;33;20105;-70
2022/08/26 02:52:27;;;;;;;13.20;3.70;;;;;;;19.89;100.00;98859.78;4291091;33;20022;-70
2022/08/26 02:54:54;;;;;;;3.72;2.75;;;;;;;19.77;100.00;98833.09;4307037;33;20418;-69
2022/08/26 02:57:20;;;;;;;10.50;3.20;;;;;;;19.95;100.00;98852.28;4306313;33;20500;-69
2022/08/26 02:59:46;;;;;;;18.05;3.95;;;;;;;19.57;100.00;98796.19;4306644;33;20067;-72
2022/08/26 03:02:13;;;;;;;9.23;4.43;;;;;;;19.91;100.00;98854.84;4304505;33;20033;-69
2022/08/26 03:04:39;;;;;;;10.52;4.25;;;;;;;19.76;100.00;98841.59;4275459;33;20045;-69
2022/08/26 03:07:06;;;;;;;15.75;2.70;;;;;;;19.53;100.00;98814.31;4277919;33;20097;-70
2022/08/26 03:09:33;;;;;;;19.10;3.67;;;;;;;19.43;100.00;98811.84;4276212;33;20127;-70
2022/08/26 03:12:00;;;;;;;13.38;3.15;;;;;;;19.53;100.00;98816.22;4277460;33;20074;-73
2022/08/26 03:14:27;;;;;;;11.65;3.08;;;;;;;19.75;100.00;98856.34;4286967;33;20100;-70
2022/08/26 03:16:54;;;;;;;5.22;2.67;;;;;;;19.69;100.00;98824.81;4307703;33;20921;-70
2022/08/26 03:19:22;;;;;;;11.60;3.47;;;;;;;19.69;100.00;98847.50;4303739;33;20037;-70
2022/08/26 03:21:50;;;;;;;13.60;3.05;;;;;;;19.69;100.00;98846.66;4304783;33;20454;-70
2022/08/26 03:24:17;;;;;;;7.55;3.22;;;;;;;20.09;100.00;98849.44;4270593;33;20050;-73
2022/08/26 03:26:44;;;;;;;19.37;3.92;;;;;;;19.99;100.00;98838.78;4278393;33;20479;-72
2022/08/26 03:31:56;;;;;;;5.68;3.35;;;;;;;19.95;100.00;98833.94;4277836;33;20037;-73
2022/08/26 03:34:22;;;;;;;9.70;3.22;;;;;;;19.96;100.00;98808.25;4290529;33;20033;-69
2022/08/26 03:36:49;;;;;;;8.13;3.75;;;;;;;20.19;100.00;98838.19;4310648;33;20076;-70
2022/08/26 03:39:15;;;;;;;11.75;3.33;;;;;;;20.25;100.00;98842.41;4317038;33;20048;-70
2022/08/26 03:41:43;;;;;;;9.13;3.47;;;;;;;20.19;100.00;98832.72;4313408;33;20052;-69
2022/08/26 03:44:10;;;;;;;18.45;3.97;;;;;;;20.26;100.00;98832.25;4316491;33;20071;-71
2022/08/26 03:46:38;;;;;;;7.00;3.30;;;;;;;20.16;100.00;98849.75;4301290;33;20062;-70
2022/08/26 03:49:06;;;;;;;21.42;3.90;;;;;;;20.42;100.00;98846.28;4305760;33;20458;-70
2022/08/26 03:51:35;;;;;;;7.78;3.45;;;;;;;20.27;100.00;98844.81;4270906;33;20439;-70
2022/08/26 03:54:02;;;;;;;18.08;3.87;;;;;;;20.13;100.00;98850.41;4257656;33;20042;-69
2022/08/26 03:56:32;;;;;;;9.57;3.22;;;;;;;20.25;100.00;98847.06;4252664;33;20052;-73
2022/08/26 03:58:59;;;;;;;14.63;3.37;;;;;;;20.25;100.00;98842.41;4229770;33;20100;-69
2022/08/26 04:01:27;;;;;;;11.15;3.53;;;;;;;20.19;100.00;98805.41;4229670;33;20043;-70
2022/08/26 04:03:57;;;;;;;15.82;3.70;;;;;;;20.20;100.00;98801.56;4228493;33;20209;-69
2022/08/26 04:06:26;;;;;;;20.85;3.35;;;;;;;20.32;100.00;98848.19;4227315;33;20113;-73
2022/08/26 04:08:54;;;;;;;11.60;3.70;;;;;;;20.14;100.00;98813.75;4236865;33;20078;-68
2022/08/26 04:11:23;;;;;;;15.27;3.00;;;;;;;20.31;100.00;98830.19;4237753;33;20084;-69
2022/08/26 04:13:50;;;;;;;20.65;3.58;;;;;;;20.23;100.00;98836.44;4229517;33;20169;-70
2022/08/26 04:16:17;;;;;;;8.75;3.35;;;;;;;20.32;100.00;98830.97;4222659;33;20034;-72
2022/08/26 04:18:43;;;;;;;10.50;3.30;;;;;;;20.22;100.00;98843.03;4244982;33;20067;-70
2022/08/26 04:21:11;;;;;;;14.70;3.45;;;;;;;20.23;100.00;98847.38;4228592;33;20245;-70
2022/08/26 04:23:38;;;;;;;10.10;3.33;;;;;;;20.22;100.00;98826.63;4215381;34;20094;-70
2022/08/26 04:26:05;;;;;;;18.65;4.30;;;;;;;20.18;100.00;98831.09;4229995;33;20121;-70
2022/08/26 04:28:31;;;;;;;10.52;4.32;;;;;;;20.03;100.00;98806.97;4232171;33;20030;-70
2022/08/26 04:30:57;;;;;;;10.73;3.22;;;;;;;20.10;100.00;98835.47;4253112;33;20071;-71
2022/08/26 04:33:24;;;;;;;16.48;3.60;;;;;;;19.68;100.00;98812.28;4256955;33;20046;-69
2022/08/26 04:35:59;;;;;;;9.32;3.50;;;;;;;19.98;100.00;98839.91;4276043;33;20067;-72
2022/08/26 04:38:33;;;;;;;11.18;3.58;;;;;;;20.03;100.00;98839.78;4285456;33;20049;-71
2022/08/26 04:41:00;;;;;;;20.70;3.80;;;;;;;19.00;100.00;98695.09;4283849;33;20041;-72
2022/08/26 04:43:29;;;;;;;15.88;3.65;;;;;;;19.89;100.00;98802.41;4285238;33;20055;-71
2022/08/26 04:46:05;;;;;;;13.40;3.75;;;;;;;20.07;100.00;98840.72;4292343;33;20033;-71
2022/08/26 04:48:33;;;;;;;13.75;3.42;;;;;;;20.10;100.00;98851.03;4264399;33;20251;-71
2022/08/26 04:51:00;;;;;;;11.35;3.97;;;;;;;20.21;100.00;98846.88;4262642;33;20038;-72
2022/08/26 04:53:27;;;;;;;14.75;3.33;;;;;;;19.89;100.00;98796.97;4306225;33;20100;-71
2022/08/26 04:55:54;;;;;;;18.77;3.50;;;;;;;20.24;100.00;98838.03;4306805;33;20440;-72
2022/08/26 04:58:25;;;;;;;16.33;3.03;;;;;;;20.41;100.00;98839.22;4317374;33;20471;-70
2022/08/26 05:00:53;;;;;;;10.73;4.22;;;;;;;20.23;100.00;98839.19;4304913;33;20024;-72
2022/08/26 05:03:22;;;;;;;13.82;3.87;;;;;;;20.42;100.00;98835.34;4295703;33;20147;-72
2022/08/26 05:05:49;;;;;;;12.20;3.75;;;;;;;20.56;100.00;98841.47;4296106;33;20018;-70
2022/08/26 05:08:17;;;;;;;20.98;4.62;;;;;;;20.41;100.00;98836.47;4296779;33;20051;-71
2022/08/26 05:10:50;;;;;;;8.93;3.28;;;;;;;20.61;100.00;98844.03;4263311;33;20085;-72
2022/08/26 05:13:19;;;;;;;17.75;4.05;;;;;;;20.37;100.00;98808.16;4247699;33;20042;-71
2022/08/26 05:15:47;;;;;;;6.47;2.85;;;;;;;20.73;100.00;98843.44;4233841;33;20093;-71
2022/08/26 05:18:15;;;;;;;19.02;3.90;;;;;;;20.86;100.00;98844.41;4204623;34;20129;-71
2022/08/26 05:20:47;;;;;;;10.07;3.55;;;;;;;20.89;100.00;98846.50;4190105;34;20144;-71
2022/08/26 05:23:14;;;;;;;7.57;3.10;;;;;;;20.65;100.00;98809.47;4206656;34;20107;-71
2022/08/26 05:25:43;;;;;;;5.28;3.33;;;;;;;20.51;100.00;98814.28;4208362;34;20076;-74
2022/08/26 05:28:11;;;;;;;17.35;3.67;;;;;;;20.87;100.00;98843.28;4212393;34;20056;-70
2022/08/26 05:30:38;;;;;;;16.67;3.85;;;;;;;20.93;100.00;98841.19;4211104;34;20080;-71
2022/08/26 05:33:07;;;;;;;23.52;4.00;;;;;;;21.09;100.00;98855.16;4222885;34;20409;-71
2022/08/26 05:35:37;;;;;;;12.75;3.75;;;;;;;20.99;100.00;98859.84;4266170;33;20042;-75
2022/08/26 05:38:06;;;;;;;20.65;3.60;;;;;;;21.07;100.00;98865.66;4259508;33;20451;-71
2022/08/26 05:40:39;;;;;;;17.92;3.78;;;;;;;21.34;100.00;98861.75;4252007;33;20489;-72
2022/08/26 05:43:09;;;;;;;13.00;4.30;;;;;;;21.22;100.00;98824.06;4256865;33;20045;-71
2022/08/26 05:45:37;;;;;;;9.43;3.50;;;;;;;21.41;100.00;98860.13;4234696;33;20057;-72
2022/08/26 05:48:08;;;;;;;18.45;3.40;;;;;;;21.35;100.00;98850.47;4252158;33;20415;-71
2022/08/26 05:50:40;;;;;;;20.75;4.62;;;;;;;21.65;100.00;98858.78;4262290;33;20116;-72
2022/08/26 05:53:08;;;;;;;16.30;3.40;;;;;;;21.35;100.00;98783.94;4255660;33;20069;-70
2022/08/26 05:55:42;;;;;;;19.17;3.75;;;;;;;21.79;100.00;98863.25;4250203;33;20438;-72
2022/08/26 05:58:16;;;;;;;11.18;3.35;;;;;;;21.66;100.00;98832.19;4247842;33;20506;-69
2022/08/26 06:00:43;;;;;;;20.60;3.70;;;;;;;21.93;100.00;98858.34;4251683;33;20084;-71
2022/08/26 06:03:10;;;;;;;10.25;2.95;;;;;;;21.95;100.00;98861.56;4254278;33;20107;-70
2022/08/26 06:05:38;;;;;;;16.98;3.30;;;;;;;21.87;100.00;98832.25;4251610;33;20143;-71
2022/08/26 06:08:15;;;;;;;15.35;3.65;;;;;;;22.08;100.00;98849.56;4250873;33;20117;-72
2022/08/26 06:10:44;;;;;;;13.25;2.72;;;;;;;21.93;100.00;98819.97;4257037;33;20031;-70
2022/08/26 06:13:12;;;;;;;18.25;4.05;;;;;;;22.27;100.00;98851.91;4255674;33;20401;-70
2022/08/26 06:15:44;;;;;;;28.27;4.20;;;;;;;22.47;100.00;98861.31;4262912;33;20096;-73
2022/08/26 06:18:13;;;;;;;19.73;3.37;;;;;;;22.49;100.00;98852.75;4300064;33;20089;-71
2022/08/26 06:20:43;;;;;;;17.23;4.07;;;;;;;22.73;100.00;98857.56;4301329;33;20057;-71
2022/08/26 06:25:59;;;;;;;12.52;2.87;;;;;;;22.66;100.00;98827.13;4340982;32;20047;-73
2022/08/26 06:28:26;;;;;;;13.90;4.03;;;;;;;22.90;100.00;98850.34;4367203;32;20072;-70
2022/08/26 06:30:54;;;;;;;9.65;3.05;;;;;;;23.05;100.00;98866.19;4366343;32;20023;-71
2022/08/26 06:33:23;;;;;;;8.70;3.03;;;;;;;23.30;100.00;98863.56;4368756;32;20087;-76
2022/08/26 06:35:49;;;;;;;21.33;4.37;;;;;;;23.21;100.00;98850.72;4372720;32;20065;-69
2022/08/26 06:38:16;;;;;;;16.15;3.28;;;;;;;23.27;100.00;98847.75;4371625;32;20074;-72
2022/08/26 06:40:49;;;;;;;11.88;3.75;;;;;;;23.21;100.00;98826.00;4331940;33;20040;-72
2022/08/26 06:43:18;;;;;;;9.65;3.42;;;;;;;23.29;100.00;98834.47;4329782;33;20382;-73
2022/08/26 06:45:46;;;;;;;15.32;2.92;;;;;;;23.49;100.00;98872.09;4302414;33;20056;-73
2022/08/26 06:48:14;;;;;;;16.55;3.12;;;;;;;23.64;100.00;98867.06;4303623;33;20036;-75
2022/08/26 06:50:41;;;;;;;8.95;3.20;;;;;;;23.59;100.00;98862.59;4303313;33;20398;-73
2022/08/26 06:53:10;;;;;;;14.45;3.47;;;;;;;23.58;100.00;98864.56;4284038;33;20046;-71
2022/08/26 06:55:41;;;;;;;13.20;3.70;;;;;;;23.79;100.00;98863.66;4249138;33;20022;-73
2022/08/26 06:58:08;;;;;;;22.50;3.35;;;;;;;23.91;100.00;98866.44;4246170;33;20131;-72
2022/08/26 07:00:36;;;;;;;18.27;3.25;;;;;;;23.85;100.00;98856.81;4221032;34;20039;-72
2022/08/26 07:03:04;;;;;;;18.62;4.22;;;;;;;23.65;100.00;98836.50;4222001;34;20061;-72
2022/08/26 07:05:32;;;;;;;18.00;3.58;;;;;;;23.75;100.00;98840.75;4219856;34;20074;-72
2022/08/26 07:07:59;;;;;;;22.10;3.92;;;;;;;23.51;100.00;98814.03;4222413;34;20066;-72
2022/08/26 07:10:25;;;;;;;23.48;3.70;;;;;;;23.85;100.00;98845.81;4222398;33;20047;-71
2022/08/26 07:12:52;;;;;;;9.73;3.12;;;;;;;24.21;100.00;98865.44;4224657;33;20072;-73
2022/08/26 07:15:19;;;;;;;12.02;3.25;;;;;;;24.09;100.00;98827.72;4224743;34;20150;-78
2022/08/26 07:17:45;;;;;;;9.57;3.72;;;;;;;24.14;100.00;98835.75;4237291;33;20051;-72
2022/08/26 07:20:12;;;;;;;15.23;3.95;;;;;;;24.17;100.00;98824.03;4267903;33;20057;-70
2022/08/26 07:22:38;;;;;;;19.37;4.15;;;;;;;24.33;100.00;98862.66;4267797;33;20092;-72
2022/08/26 07:25:07;;;;;;;10.10;3.22;;;;;;;24.43;100.00;98853.16;4306150;33;20091;-73
2022/08/26 07:27:35;;;;;;;12.43;3.58;;;;;;;24.12;100.00;98807.78;4334597;33;20036;-74
2022/08/26 07:30:04;;;;;;;7.00;2.97;;;;;;;24.35;100.00;98834.78;4319620;33;20090;-73
2022/08/26 07:32:38;;;;;;;8.35;3.67;;;;;;;24.64;100.00;98840.03;4309535;33;20036;-73
2022/08/26 07:35:05;;;;;;;14.27;3.85;;;;;;;24.75;100.00;98856.09;4330835;32;20060;-74
2022/08/26 07:37:31;;;;;;;9.00;3.12;;;;;;;25.01;100.00;98867.44;4338928;33;20075;-74
2022/08/26 07:39:57;;;;;;;9.63;3.55;;;;;;;24.92;100.00;98825.50;4298569;33;20111;-73
2022/08/26 07:42:24;;;;;;;18.02;3.12;;;;;;;24.89;100.00;98826.22;4295245;33;20055;-74
2022/08/26 07:44:50;;;;;;;6.65;2.47;;;;;;;24.89;100.00;98831.72;4280042;33;20105;-73
2022/08/26 07:47:17;;;;;;;17.00;3.40;;;;;;;24.93;100.00;98827.09;4295296;33;20040;-72
2022/08/26 07:49:43;;;;;;;15.70;2.75;;;;;;;25.20;99.57;98864.03;4295508;33;20053;-75
2022/08/26 07:52:10;;;;;;;10.05;2.72;;;;;;;25.18;96.96;98829.75;4286846;33;20423;-75
2022/08/26 07:54:36;;;;;;;6.85;3.45;;;;;;;25.50;95.59;98857.37;4284972;33;20471;-71
2022/08/26 07:57:03;;;;;;;11.75;3.00;;;;;;;24.86;97.79;98760.81;4283204;33;20124;-73
2022/08/26 07:59:30;;;;;;;11.60;3.17;;;;;;;25.28;97.04;98823.75;4285248;33;20490;-72
2022/08/26 08:01:58;;;;;;;17.77;4.03;;;;;;;25.54;98.73;98855.50;4283196;33;20029;-76
2022/08/26 08:04:25;;;;;;;12.15;3.00;;;;;;;25.53;97.58;98842.91;4282342;33;20065;-73
2022/08/26 08:06:51;;;;;;;14.18;3.45;;;;;;;25.78;100.00;98860.06;4314192;33;20398;-73
2022/08/26 08:09:18;;;;;;;8.15;3.42;;;;;;;25.80;100.00;98857.75;4309249;33;20493;-73
2022/08/26 08:14:18;;;;;;;17.00;4.35;;;;;;;25.87;95.70;98851.63;4353884;32;20044;-72
2022/08/26 08:16:45;;;;;;;17.58;2.80;;;;;;;25.98;91.63;98855.47;4379767;32;20046;-72
2022/08/26 08:19:12;;;;;;;7.12;2.40;;;;;;;26.10;88.46;98860.88;4387342;32;20116;-72
2022/08/26 08:21:39;;;;;;;8.18;3.20;;;;;;;26.21;91.75;98860.31;4391529;32;20061;-72
2022/08/26 08:24:06;;;;;;;4.95;3.40;;;;;;;26.32;90.59;98866.88;4383430;32;20410;-74
2022/08/26 08:26:34;;;;;;;10.13;3.00;;;;;;;26.15;84.51;98839.69;4338496;33;20236;-71
2022/08/26 08:29:00;;;;;;;6.18;3.40;;;;;;;26.41;87.80;98864.75;4340209;33;20058;-73
2022/08/26 08:31:29;;;;;;;12.37;3.25;;;;;;;26.39;91.94;98860.72;4339443;33;20450;-72
2022/08/26 08:33:55;;;;;;;6.95;3.53;;;;;;;26.28;86.52;98855.78;4341330;32;20099;-75
2022/08/26 08:36:21;;;;;;;13.13;3.37;;;;;;;26.38;87.27;98859.94;4320428;33;20135;-71
2022/08/26 08:38:48;;;;;;;15.18;3.67;;;;;;;26.49;91.58;98849.13;4325090;33;20053;-71
2022/08/26 08:41:37;;;;;;;17.20;3.00;;;;;;;26.35;89.23;98838.56;4324075;33;20040;-71
2022/08/26 08:44:09;;;;;;;12.75;3.10;;;;;;;26.59;92.74;98854.09;4308581;33;20071;-76
2022/08/26 08:46:37;;;;;;;5.72;3.12;;;;;;;26.33;94.86;98829.88;4327778;33;20582;-71
2022/08/26 08:49:04;;;;;;;5.55;3.53;;;;;;;26.46;90.80;98861.69;4331685;33;20059;-76
2022/08/26 08:51:46;;;;;;;19.30;3.17;;;;;;;26.58;85.27;98857.19;4294776;33;20052;-70
2022/08/26 08:54:13;;;;;;;11.12;3.30;;;;;;;26.71;85.70;98864.25;4281627;33;20427;-69
2022/08/26 08:56:48;;;;;;;6.55;3.05;;;;;;;26.70;82.82;98854.34;4283201;33;20466;-69
2022/08/26 08:59:20;;;;;;;7.15;3.55;;;;;;;26.85;91.79;98857.41;4264668;33;20042;-70
2022/08/26 09:01:55;;;;;;;9.30;3.37;;;;;;;26.83;95.79;98858.56;4265989;33;20042;-71
2022/08/26 09:04:40;;;;;;;15.10;3.15;;;;;;;26.79;97.70;98851.38;4265653;33;20064;-69
2022/08/26 09:07:12;;;;;;;15.02;4.15;;;;;;;26.72;94.38;98852.00;4262810;33;20067;-72
2022/08/26 09:09:44;;;;;;;19.90;3.45;;;;;;;26.63;96.27;98829.34;4274814;33;20041;-70
2022/08/26 09:12:15;;;;;;;20.80;3.85;;;;;;;26.85;96.75;98854.66;4277860;33;20018;-71
2022/08/26 09:14:45;;;;;;;13.15;3.60;;;;;;;26.97;98.47;98851.75;4290407;33;20099;-73
2022/08/26 09:17:40;;;;;;;14.48;3.58;;;;;;;27.03;95.98;98850.28;4293084;33;20509;-73
2022/08/26 09:20:47;;;;;;;21.40;2.62;;;;;;;27.09;99.01;98859.88;4292586;33;20051;-70
2022/08/26 09:23:13;;;;;;;15.88;3.78;;;;;;;27.03;87.45;98852.22;4291862;33;20040;-70
2022/08/26 09:25:49;;;;;;;10.90;3.15;;;;;;;27.00;97.93;98835.22;4311789;33;20178;-70
2022/08/26 09:28:19;;;;;;;10.88;2.80;;;;;;;27.24;93.32;98851.88;4326115;33;20402;-71
2022/08/26 09:30:59;;;;;;;20.45;3.30;;;;;;;27.17;95.13;98827.66;4334539;32;20062;-70
2022/08/26 09:33:30;;;;;;;10.00;3.50;;;;;;;27.11;91.31;98821.63;4338814;33;20315;-70
2022/08/26 09:36:21;;;;;;;16.62;3.05;;;;;;;27.43;90.49;98846.34;4334299;33;20032;-76
2022/08/26 09:38:49;;;;;;;11.40;2.90;;;;;;;27.40;93.75;98836.00;4339924;32;20032;-70
2022/08/26 09:41:32;;;;;;;8.93;3.00;;;;;;;27.52;92.61;98835.03;4337482;32;20071;-70
2022/08/26 09:44:17;;;;;;;5.12;3.72;;;;;;;27.50;82.67;98834.59;4336828;32;20035;-74
2022/08/26 09:46:53;;;;;;;9.15;3.70;;;;;;;27.49;74.34;98833.81;4348524;32;20100;-70
2022/08/26 09:49:35;;;;;;;6.40;3.25;;;;;;;27.56;71.58;98832.34;4349385;32;20035;-71
2022/08/26 09:52:22;;;;;;;23.33;4.75;;;;;;;27.67;82.24;98800.12;4326160;33;20044;-73
2022/08/26 09:55:06;;;;;;;22.42;4.62;;;;;;;27.89;67.83;98840.78;4336951;33;20043;-72
2022/08/26 09:57:45;;;;;;;14.18;3.15;;;;;;;27.79;69.82;98808.22;4337156;33;20525;-73
2022/08/26 10:00:30;;;;;;;19.25;3.30;;;;;;;28.02;66.50;98832.34;4333835;33;20158;-70
2022/08/26 10:02:59;;;;;;;20.70;4.22;;;;;;;27.82;62.32;98832.38;4348012;32;20040;-69
2022/08/26 10:05:39;;;;;;;10.00;2.72;;;;;;;27.95;69.20;98802.56;4343536;32;20050;-70
2022/08/26 10:08:30;;;;;;;15.27;3.20;;;;;;;28.39;78.12;98835.25;4350761;32;20093;-69
2022/08/26 10:10:59;;;;;;;15.02;4.25;;;;;;;28.43;86.04;98833.34;4338670;33;20040;-78
2022/08/26 10:13:42;;;;;;;13.18;3.08;;;;;;;28.26;77.02;98798.69;4342138;32;20334;-68
2022/08/26 10:16:28;;;;;;;19.05;3.25;;;;;;;28.41;70.60;98832.09;4351250;32;20040;-68
2022/08/26 10:19:05;;;;;;;12.52;3.50;;;;;;;28.29;72.81;98807.41;4346203;32;20063;-69
2022/08/26 10:21:49;;;;;;;7.43;3.20;;;;;;;28.22;69.68;98814.44;4349332;32;20055;-68
2022/08/26 10:24:40;;;;;;;21.27;4.45;;;;;;;28.44;73.58;98792.59;4375832;32;20049;-69
2022/08/26 10:27:11;;;;;;;13.17;3.30;;;;;;;28.54;72.17;98825.16;4381493;32;20412;-72
2022/08/26 10:29:45;;;;;;;7.25;3.03;;;;;;;28.88;65.79;98824.41;4379244;32;20055;-72
2022/08/26 10:32:29;;;;;;;13.52;2.75;;;;;;;28.84;61.37;98810.50;4384230;32;20503;-69
2022/08/26 10:34:57;;;;;;;9.60;2.62;;;;;;;28.52;53.74;98793.47;4379906;32;20081;-70
2022/08/26 10:37:33;;;;;;;10.98;2.80;;;;;;;28.75;52.09;98818.31;4384781;32;20102;-70
2022/08/26 10:40:12;;;;;;;11.95;3.55;;;;;;;28.83;58.67;98817.22;4385253;32;20497;-69
2022/08/26 10:42:44;;;;;;;7.72;3.15;;;;;;;28.80;55.84;98804.16;4353105;33;20035;-70
2022/08/26 10:45:15;;;;;;;8.63;2.95;;;;;;;28.97;62.94;98809.06;4356577;32;20047;-71
2022/08/26 10:47:52;;;;;;;17.75;3.58;;;;;;;28.89;62.65;98790.00;4359277;32;20053;-69
2022/08/26 10:50:24;;;;;;;23.40;3.83;;;;;;;29.09;55.16;98787.84;4351893;32;20055;-69
2022/08/26 10:52:59;;;;;;;8.93;2.97;;;;;;;29.01;59.05;98780.59;4340074;32;20040;-69
2022/08/26 10:55:36;;;;;;;31.23;3.60;;;;;;;29.25;60.88;98804.25;4338057;33;20081;-69
2022/08/26 10:58:30;;;;;;;16.95;3.15;;;;;;;29.25;59.71;98807.81;4340919;33;20062;-69
2022/08/26 11:04:15;;;;;;;10.18;2.37;;;;;;;29.38;56.65;98771.50;4339967;33;20066;-75
2022/08/26 11:06:45;;;;;;;15.40;2.50;;;;;;;29.91;61.47;98792.56;4333445;33;20044;-70
2022/08/26 11:09:42;;;;;;;18.87;4.87;;;;;;;30.11;55.23;98793.06;4341478;32;20061;-67
2022/08/26 11:12:35;;;;;;;14.35;3.20;;;;;;;30.18;52.55;98785.59;4311525;33;20107;-68
2022/08/26 11:15:10;;;;;;;10.15;2.67;;;;;;;30.51;53.74;98774.69;4340827;33;20040;-68
2022/08/26 11:17:44;;;;;;;19.35;3.15;;;;;;;30.31;45.54;98785.25;4336719;33;20044;-67
2022/08/26 11:20:29;;;;;;;7.60;2.50;;;;;;;30.35;50.68;98784.09;4343910;32;20028;-67
2022/08/26 11:23:19;;;;;;;8.60;2.78;;;;;;;30.39;45.67;98784.94;4335510;33;20074;-67
2022/08/26 11:26:06;;;;;;;8.98;3.45;;;;;;;30.43;44.69;98780.19;4325862;33;20104;-67
2022/08/26 11:28:44;;;;;;;6.93;3.87;;;;;;;31.17;47.20;98776.50;4310709;33;20067;-68
2022/08/26 11:31:37;;;;;;;19.48;3.62;;;;;;;31.30;47.30;98775.69;4322816;33;20052;-67
2022/08/26 11:34:07;;;;;;;11.10;3.30;;;;;;;31.08;46.19;98774.09;4300551;33;20059;-67
2022/08/26 11:36:36;;;;;;;8.00;3.50;;;;;;;30.82;45.45;98767.63;4297132;33;20062;-68
2022/08/26 11:39:24;;;;;;;4.62;2.80;;;;;;;30.78;43.76;98758.50;4295960;33;20083;-67
2022/08/26 11:41:53;;;;;;;9.45;3.33;;;;;;;31.51;42.68;98763.81;4296200;33;20053;-68
2022/08/26 11:44:25;;;;;;;9.23;2.75;;;;;;;30.71;43.89;98762.03;4294462;33;20049;-68
2022/08/26 11:46:59;;;;;;;15.35;3.55;;;;;;;31.33;44.59;98763.00;4278100;33;20443;-68
2022/08/26 11:49:27;;;;;;;8.02;3.35;;;;;;;31.45;43.75;98754.28;4281061;33;20029;-68